createdAt,value
2018-01-30T00:00:42.451Z,44.71
2018-01-30T00:01:51.152Z,44.62
2018-01-30T00:03:00.386Z,44.52
2018-01-30T00:04:09.652Z,44.62
2018-01-30T00:05:18.621Z,44.52
2018-01-30T00:06:27.602Z,44.81
2018-01-30T00:07:36.577Z,44.71
2018-01-30T00:08:45.538Z,44.62
2018-01-30T00:09:54.512Z,44.71
2018-01-30T00:11:03.543Z,44.71
2018-01-30T00:12:12.567Z,44.71
2018-01-30T00:13:21.336Z,44.71
2018-01-30T00:14:30.352Z,45
2018-01-30T00:15:39.583Z,44.81
2018-01-30T00:16:48.563Z,44.81
2018-01-30T00:17:57.548Z,44.81
2018-01-30T00:19:06.777Z,44.81
2018-01-30T00:20:16.022Z,44.81
2018-01-30T00:21:24.717Z,45
2018-01-30T00:22:33.961Z,44.9
2018-01-30T00:23:43.179Z,44.81
2018-01-30T00:24:52.170Z,44.71
2018-01-30T00:26:01.418Z,45
2018-01-30T00:27:10.391Z,44.9
2018-01-30T00:28:19.360Z,44.9
2018-01-30T00:29:28.614Z,44.9
2018-01-30T00:30:37.590Z,45
2018-01-30T00:31:46.305Z,45
2018-01-30T00:32:55.274Z,44.81
2018-01-30T00:34:04.500Z,44.71
2018-01-30T00:35:13.495Z,44.9
2018-01-30T00:36:22.218Z,44.81
2018-01-30T00:37:31.286Z,44.81
2018-01-30T00:38:40.802Z,45
2018-01-30T00:39:49.826Z,44.81
2018-01-30T00:40:58.801Z,44.71
2018-01-30T00:42:08.063Z,45.1
2018-01-30T00:43:17.287Z,44.9
2018-01-30T00:44:26.592Z,45
2018-01-30T00:45:35.306Z,44.71
2018-01-30T00:46:44.015Z,45
2018-01-30T00:47:52.972Z,44.71
2018-01-30T00:49:01.673Z,44.81
2018-01-30T00:50:10.632Z,44.71
2018-01-30T00:51:20.142Z,44.81
2018-01-30T00:52:29.097Z,44.81
2018-01-30T00:53:38.334Z,44.9
2018-01-30T00:54:47.057Z,44.9
2018-01-30T00:55:56.018Z,44.9
2018-01-30T00:57:04.970Z,44.81
2018-01-30T00:58:14.191Z,44.9
2018-01-30T00:59:23.424Z,44.9
2018-01-30T01:00:32.901Z,44.9
2018-01-30T01:01:41.604Z,44.81
2018-01-30T01:02:50.858Z,44.9
2018-01-30T01:03:59.906Z,44.71
2018-01-30T01:05:09.654Z,44.9
2018-01-30T01:06:18.641Z,44.9
2018-01-30T01:07:27.905Z,44.9
2018-01-30T01:08:36.606Z,44.9
2018-01-30T01:09:45.565Z,45
2018-01-30T01:10:54.274Z,45
2018-01-30T01:12:03.481Z,45
2018-01-30T01:13:12.456Z,44.9
2018-01-30T01:14:21.694Z,44.81
2018-01-30T01:15:30.396Z,45
2018-01-30T01:16:39.637Z,44.81
2018-01-30T01:17:48.677Z,44.81
2018-01-30T01:18:57.650Z,45
2018-01-30T01:20:06.884Z,44.81
2018-01-30T01:21:15.871Z,44.9
2018-01-30T01:22:25.162Z,44.9
2018-01-30T01:23:33.873Z,44.81
2018-01-30T01:24:43.355Z,45
2018-01-30T01:25:52.040Z,44.81
2018-01-30T01:27:01.022Z,44.9
2018-01-30T01:28:10.239Z,45.1
2018-01-30T01:29:19.204Z,44.81
2018-01-30T01:30:28.420Z,45
2018-01-30T01:31:37.422Z,44.9
2018-01-30T01:32:46.651Z,45
2018-01-30T01:33:55.893Z,45
2018-01-30T01:35:05.399Z,44.71
2018-01-30T01:36:14.354Z,44.9
2018-01-30T01:37:23.034Z,44.81
2018-01-30T01:38:31.751Z,44.81
2018-01-30T01:39:41.249Z,44.71
2018-01-30T01:40:50.203Z,44.81
2018-01-30T01:41:58.911Z,44.81
2018-01-30T01:43:07.892Z,45
2018-01-30T01:44:17.401Z,44.81
2018-01-30T01:45:26.646Z,44.9
2018-01-30T01:46:36.143Z,44.71
2018-01-30T01:47:45.403Z,44.9
2018-01-30T01:48:54.360Z,44.81
2018-01-30T01:50:03.318Z,45
2018-01-30T01:51:12.085Z,45
2018-01-30T01:52:21.119Z,44.9
2018-01-30T01:53:30.095Z,45
2018-01-30T01:54:38.803Z,44.81
2018-01-30T01:55:47.551Z,44.9
2018-01-30T01:56:56.504Z,44.9
2018-01-30T01:58:05.463Z,44.81
2018-01-30T01:59:14.474Z,44.9
2018-01-30T02:00:23.458Z,44.9
2018-01-30T02:01:32.671Z,45
2018-01-30T02:02:41.639Z,44.81
2018-01-30T02:03:50.860Z,44.81
2018-01-30T02:04:59.546Z,44.71
2018-01-30T02:06:09.037Z,44.9
2018-01-30T02:07:18.004Z,44.81
2018-01-30T02:08:26.720Z,44.71
2018-01-30T02:09:36.013Z,44.69
2018-01-30T02:10:45.083Z,44.81
2018-01-30T02:11:54.042Z,44.81
2018-01-30T02:13:03.540Z,44.81
2018-01-30T02:14:12.247Z,44.71
2018-01-30T02:15:20.950Z,44.9
2018-01-30T02:16:29.663Z,44.42
2018-01-30T02:17:38.926Z,44.81
2018-01-30T02:18:47.896Z,44.81
2018-01-30T02:19:57.150Z,44.81
2018-01-30T02:21:05.874Z,44.81
2018-01-30T02:22:14.864Z,44.71
2018-01-30T02:23:24.361Z,44.71
2018-01-30T02:24:33.075Z,44.71
2018-01-30T02:25:41.807Z,44.71
2018-01-30T02:26:51.064Z,44.42
2018-01-30T02:27:59.770Z,44.71
2018-01-30T02:29:08.455Z,44.71
2018-01-30T02:30:18.222Z,44.81
2018-01-30T02:31:27.207Z,44.71
2018-01-30T02:32:36.172Z,44.69
2018-01-30T02:33:44.873Z,44.71
2018-01-30T02:34:54.331Z,44.62
2018-01-30T02:36:03.821Z,44.31
2018-01-30T02:37:13.047Z,44.71
2018-01-30T02:38:22.004Z,44.62
2018-01-30T02:39:31.245Z,44.62
2018-01-30T02:40:40.475Z,44.69
2018-01-30T02:41:49.730Z,44.62
2018-01-30T02:42:58.949Z,44.89
2018-01-30T02:44:07.912Z,44.69
2018-01-30T02:45:17.408Z,44.69
2018-01-30T02:46:26.641Z,44.69
2018-01-30T02:47:35.367Z,45.07
2018-01-30T02:48:44.611Z,44.49
2018-01-30T02:49:53.831Z,44.98
2018-01-30T02:51:03.080Z,44.49
2018-01-30T02:52:11.803Z,44.52
2018-01-30T02:53:21.043Z,44.52
2018-01-30T02:54:30.254Z,44.49
2018-01-30T02:55:39.223Z,44.4
2018-01-30T02:56:48.202Z,44.32
2018-01-30T02:57:57.441Z,44.31
2018-01-30T02:59:06.387Z,44.4
2018-01-30T03:00:15.383Z,44.49
2018-01-30T03:01:24.116Z,44.49
2018-01-30T03:02:33.086Z,44.49
2018-01-30T03:03:42.115Z,44.42
2018-01-30T03:04:51.061Z,44.32
2018-01-30T03:06:00.043Z,44.42
2018-01-30T03:07:09.271Z,44.31
2018-01-30T03:08:17.978Z,44.4
2018-01-30T03:09:27.208Z,44.21
2018-01-30T03:10:36.451Z,44.59
2018-01-30T03:11:45.676Z,44.62
2018-01-30T03:12:54.630Z,44.4
2018-01-30T03:14:03.852Z,44.49
2018-01-30T03:15:12.798Z,44.62
2018-01-30T03:16:21.789Z,44.42
2018-01-30T03:17:30.745Z,44.52
2018-01-30T03:18:39.709Z,44.71
2018-01-30T03:19:48.426Z,44.52
2018-01-30T03:20:57.412Z,44.59
2018-01-30T03:22:06.378Z,44.49
2018-01-30T03:23:15.340Z,44.42
2018-01-30T03:24:24.279Z,44.59
2018-01-30T03:25:33.241Z,44.52
2018-01-30T03:26:41.934Z,44.42
2018-01-30T03:27:50.640Z,44.69
2018-01-30T03:28:59.580Z,44.59
2018-01-30T03:30:08.265Z,44.62
2018-01-30T03:31:17.747Z,44.52
2018-01-30T03:32:26.441Z,44.49
2018-01-30T03:33:35.653Z,44.49
2018-01-30T03:34:44.611Z,44.69
2018-01-30T03:35:53.822Z,44.59
2018-01-30T03:37:02.781Z,44.52
2018-01-30T03:38:11.992Z,44.49
2018-01-30T03:39:21.216Z,44.4
2018-01-30T03:40:30.462Z,44.49
2018-01-30T03:41:39.409Z,44.59
2018-01-30T03:42:48.104Z,44.59
2018-01-30T03:43:56.794Z,44.49
2018-01-30T03:45:05.765Z,44.59
2018-01-30T03:46:14.988Z,44.62
2018-01-30T03:47:23.942Z,44.49
2018-01-30T03:48:33.202Z,44.4
2018-01-30T03:49:41.966Z,44.59
2018-01-30T03:50:51.466Z,44.49
2018-01-30T03:52:00.680Z,44.59
2018-01-30T03:53:09.378Z,44.59
2018-01-30T03:54:18.673Z,44.49
2018-01-30T03:55:27.641Z,44.49
2018-01-30T03:56:36.618Z,44.59
2018-01-30T03:57:45.843Z,44.59
2018-01-30T03:58:54.819Z,44.59
2018-01-30T04:00:04.058Z,44.59
2018-01-30T04:01:13.343Z,44.69
2018-01-30T04:02:22.053Z,44.69
2018-01-30T04:03:31.527Z,44.79
2018-01-30T04:04:40.200Z,44.59
2018-01-30T04:05:49.417Z,44.59
2018-01-30T04:06:58.652Z,44.59
2018-01-30T04:08:07.610Z,44.69
2018-01-30T04:09:16.589Z,44.69
2018-01-30T04:10:25.796Z,44.89
2018-01-30T04:11:35.003Z,44.89
2018-01-30T04:12:44.469Z,44.59
2018-01-30T04:13:53.433Z,44.69
2018-01-30T04:15:02.399Z,44.69
2018-01-30T04:16:11.398Z,44.69
2018-01-30T04:17:20.371Z,44.98
2018-01-30T04:18:29.071Z,44.69
2018-01-30T04:19:38.552Z,44.79
2018-01-30T04:20:48.040Z,44.89
2018-01-30T04:21:57.048Z,44.89
2018-01-30T04:23:06.262Z,44.69
2018-01-30T04:24:15.525Z,44.79
2018-01-30T04:25:24.162Z,44.79
2018-01-30T04:26:33.643Z,44.89
2018-01-30T04:27:42.608Z,44.89
2018-01-30T04:28:51.901Z,44.89
2018-01-30T04:30:00.598Z,44.69
2018-01-30T04:31:09.833Z,44.98
2018-01-30T04:32:18.782Z,44.79
2018-01-30T04:33:28.004Z,44.79
2018-01-30T04:34:37.505Z,44.79
2018-01-30T04:35:46.749Z,44.79
2018-01-30T04:36:56.048Z,44.69
2018-01-30T04:38:05.037Z,44.89
2018-01-30T04:39:14.535Z,44.59
2018-01-30T04:40:23.618Z,44.49
2018-01-30T04:41:32.378Z,44.49
2018-01-30T04:42:41.352Z,44.59
2018-01-30T04:43:50.318Z,44.31
2018-01-30T04:44:59.828Z,44.59
2018-01-30T04:46:09.157Z,44.59
2018-01-30T04:47:17.863Z,44.4
2018-01-30T04:48:27.078Z,44.69
2018-01-30T04:49:36.043Z,44.4
2018-01-30T04:50:45.275Z,44.49
2018-01-30T04:51:54.240Z,44.49
2018-01-30T04:53:02.945Z,44.4
2018-01-30T04:54:12.179Z,44.4
2018-01-30T04:55:21.448Z,44.49
2018-01-30T04:56:30.416Z,44.49
2018-01-30T04:57:39.169Z,44.11
2018-01-30T04:58:48.635Z,44.11
2018-01-30T04:59:57.625Z,44.11
2018-01-30T05:01:06.604Z,44.31
2018-01-30T05:02:15.563Z,44.4
2018-01-30T05:03:24.534Z,44.11
2018-01-30T05:04:33.225Z,44.11
2018-01-30T05:05:41.917Z,44.21
2018-01-30T05:06:51.163Z,44.11
2018-01-30T05:08:00.107Z,44.21
2018-01-30T05:09:08.834Z,44.11
2018-01-30T05:10:17.804Z,44.21
2018-01-30T05:11:26.771Z,44.11
2018-01-30T05:12:36.555Z,44.4
2018-01-30T05:13:45.591Z,44.4
2018-01-30T05:14:54.824Z,44.31
2018-01-30T05:16:03.793Z,44.21
2018-01-30T05:17:12.836Z,44.21
2018-01-30T05:18:21.537Z,44.21
2018-01-30T05:19:30.789Z,44.21
2018-01-30T05:20:39.817Z,44.21
2018-01-30T05:21:49.039Z,44.11
2018-01-30T05:22:58.282Z,44.21
2018-01-30T05:24:07.305Z,44.11
2018-01-30T05:25:16.317Z,44.11
2018-01-30T05:26:25.025Z,44.21
2018-01-30T05:27:34.009Z,44.31
2018-01-30T05:28:43.256Z,44.21
2018-01-30T05:29:52.804Z,44.02
2018-01-30T05:31:01.771Z,44.21
2018-01-30T05:32:10.753Z,44.31
2018-01-30T05:33:20.236Z,44.11
2018-01-30T05:34:29.464Z,44.11
2018-01-30T05:35:38.694Z,44.11
2018-01-30T05:36:47.474Z,44.11
2018-01-30T05:37:56.971Z,44.02
2018-01-30T05:39:05.675Z,43.92
2018-01-30T05:40:14.658Z,44.21
2018-01-30T05:41:23.948Z,43.92
2018-01-30T05:42:33.185Z,44.11
2018-01-30T05:43:42.164Z,43.75
2018-01-30T05:44:51.456Z,44.04
2018-01-30T05:46:00.727Z,43.46
2018-01-30T05:47:09.701Z,43.65
2018-01-30T05:48:18.934Z,43.85
2018-01-30T05:49:27.938Z,43.17
2018-01-30T05:50:36.931Z,42.97
2018-01-30T05:51:46.400Z,42.8
2018-01-30T05:52:55.112Z,43.1
2018-01-30T05:54:04.058Z,43
2018-01-30T05:55:13.035Z,42.8
2018-01-30T05:56:21.731Z,42.52
2018-01-30T05:57:30.964Z,42.52
2018-01-30T05:58:39.913Z,42.61
2018-01-30T05:59:48.880Z,42.42
2018-01-30T06:00:57.876Z,42.42
2018-01-30T06:02:06.652Z,41.96
2018-01-30T06:03:15.637Z,42.44
2018-01-30T06:04:24.866Z,42.05
2018-01-30T06:05:33.816Z,41.96
2018-01-30T06:06:43.041Z,41.96
2018-01-30T06:07:52.271Z,41.96
2018-01-30T06:09:01.800Z,41.67
2018-01-30T06:10:10.753Z,41.67
2018-01-30T06:11:19.735Z,41.69
2018-01-30T06:12:28.520Z,41.69
2018-01-30T06:13:37.475Z,41.69
2018-01-30T06:14:46.209Z,41.88
2018-01-30T06:15:54.910Z,41.98
2018-01-30T06:17:04.131Z,41.5
2018-01-30T06:18:13.358Z,41.3
2018-01-30T06:19:22.594Z,41.5
2018-01-30T06:20:31.839Z,41.4
2018-01-30T06:21:40.837Z,41.3
2018-01-30T06:22:49.577Z,41.11
2018-01-30T06:23:58.276Z,41.11
2018-01-30T06:25:07.529Z,40.94
2018-01-30T06:26:16.231Z,40.94
2018-01-30T06:27:25.461Z,41.03
2018-01-30T06:28:35.206Z,41.03
2018-01-30T06:29:44.483Z,40.75
2018-01-30T06:30:53.183Z,40.65
2018-01-30T06:32:02.674Z,40.65
2018-01-30T06:33:11.366Z,40.75
2018-01-30T06:34:20.059Z,40.65
2018-01-30T06:35:28.762Z,40.55
2018-01-30T06:36:38.029Z,40.86
2018-01-30T06:37:47.517Z,40.77
2018-01-30T06:38:56.208Z,40.77
2018-01-30T06:40:05.465Z,40.19
2018-01-30T06:41:14.963Z,40.38
2018-01-30T06:42:24.216Z,40.28
2018-01-30T06:43:33.499Z,40.47
2018-01-30T06:44:42.193Z,40.47
2018-01-30T06:45:51.411Z,40.47
2018-01-30T06:47:00.365Z,40.38
2018-01-30T06:48:09.631Z,40.47
2018-01-30T06:49:18.879Z,40.38
2018-01-30T06:50:27.822Z,40.67
2018-01-30T06:51:37.338Z,40.67
2018-01-30T06:52:46.581Z,40.09
2018-01-30T06:53:55.546Z,39.72
2018-01-30T06:55:05.040Z,40.01
2018-01-30T06:56:14.249Z,39.82
2018-01-30T06:57:23.537Z,39.82
2018-01-30T06:58:32.773Z,39.82
2018-01-30T06:59:42.039Z,40.01
2018-01-30T07:00:50.984Z,40.11
2018-01-30T07:01:59.980Z,40.11
2018-01-30T07:03:08.703Z,40.2
2018-01-30T07:04:17.403Z,40.69
2018-01-30T07:05:27.152Z,40.4
2018-01-30T07:06:36.670Z,40.5
2018-01-30T07:07:45.659Z,40.4
2018-01-30T07:08:54.643Z,40.5
2018-01-30T07:10:03.595Z,40.88
2018-01-30T07:11:12.547Z,40.96
2018-01-30T07:12:21.770Z,41.93
2018-01-30T07:13:31.327Z,42
2018-01-30T07:14:41.064Z,42.46
2018-01-30T07:15:50.036Z,42.83
2018-01-30T07:16:59.252Z,43.31
2018-01-30T07:18:08.502Z,43.5
2018-01-30T07:19:17.519Z,43.5
2018-01-30T07:20:26.741Z,43.6
2018-01-30T07:21:35.701Z,43.7
2018-01-30T07:22:44.694Z,43.79
2018-01-30T07:23:54.183Z,43.29
2018-01-30T07:25:02.931Z,43.21
2018-01-30T07:26:11.629Z,43.12
2018-01-30T07:27:20.851Z,42.93
2018-01-30T07:28:29.856Z,42.83
2018-01-30T07:29:38.579Z,42.73
2018-01-30T07:30:47.290Z,43.21
2018-01-30T07:31:56.019Z,43.12
2018-01-30T07:33:04.960Z,42.63
2018-01-30T07:34:13.643Z,42.83
2018-01-30T07:35:22.604Z,42.83
2018-01-30T07:36:31.826Z,42.93
2018-01-30T07:37:40.784Z,42.83
2018-01-30T07:38:50.009Z,42.73
2018-01-30T07:39:58.993Z,42.73
2018-01-30T07:41:07.985Z,42.73
2018-01-30T07:42:16.794Z,42.73
2018-01-30T07:43:25.848Z,42.73
2018-01-30T07:44:35.383Z,42.93
2018-01-30T07:45:44.425Z,42.93
2018-01-30T07:46:53.670Z,42.73
2018-01-30T07:48:02.666Z,42.73
2018-01-30T07:49:12.166Z,42.93
2018-01-30T07:50:20.862Z,42.93
2018-01-30T07:51:30.131Z,42.93
2018-01-30T07:52:39.078Z,42.93
2018-01-30T07:53:48.361Z,42.93
2018-01-30T07:54:57.357Z,42.93
2018-01-30T07:56:06.585Z,42.93
2018-01-30T07:57:15.553Z,42.93
2018-01-30T07:58:25.040Z,42.83
2018-01-30T07:59:34.534Z,42.83
2018-01-30T08:00:43.264Z,42.83
2018-01-30T08:01:51.956Z,42.83
2018-01-30T08:03:00.931Z,42.73
2018-01-30T08:04:09.883Z,42.83
2018-01-30T08:05:18.595Z,42.9
2018-01-30T08:06:27.572Z,42.71
2018-01-30T08:07:36.792Z,42.71
2018-01-30T08:08:46.284Z,42.8
2018-01-30T08:09:54.990Z,42.9
2018-01-30T08:11:04.214Z,43
2018-01-30T08:12:13.207Z,42.71
2018-01-30T08:13:22.216Z,42.8
2018-01-30T08:14:31.433Z,42.9
2018-01-30T08:15:40.709Z,42.71
2018-01-30T08:16:50.171Z,43
2018-01-30T08:17:59.394Z,42.71
2018-01-30T08:19:08.363Z,42.71
2018-01-30T08:20:17.862Z,42.8
2018-01-30T08:21:26.819Z,42.71
2018-01-30T08:22:35.770Z,42.8
2018-01-30T08:23:44.481Z,43
2018-01-30T08:24:53.472Z,42.8
2018-01-30T08:26:02.463Z,42.8
2018-01-30T08:27:11.959Z,43
2018-01-30T08:28:21.184Z,42.9
2018-01-30T08:29:30.129Z,42.8
2018-01-30T08:30:39.385Z,42.8
2018-01-30T08:31:48.062Z,42.8
2018-01-30T08:32:57.259Z,42.8
2018-01-30T08:34:05.957Z,42.8
2018-01-30T08:35:14.660Z,42.71
2018-01-30T08:36:23.627Z,42.8
2018-01-30T08:37:32.409Z,42.71
2018-01-30T08:38:41.378Z,42.71
2018-01-30T08:39:50.361Z,42.71
2018-01-30T08:40:59.608Z,42.71
2018-01-30T08:42:08.630Z,42.71
2018-01-30T08:43:17.350Z,42.71
2018-01-30T08:44:26.320Z,42.71
2018-01-30T08:45:35.302Z,42.71
2018-01-30T08:46:44.036Z,43
2018-01-30T08:47:53.038Z,42.71
2018-01-30T08:49:02.290Z,42.8
2018-01-30T08:50:11.565Z,42.9
2018-01-30T08:51:20.293Z,42.8
2018-01-30T08:52:29.828Z,42.9
2018-01-30T08:53:38.611Z,42.9
2018-01-30T08:54:47.615Z,42.8
2018-01-30T08:55:56.374Z,42.9
2018-01-30T08:57:05.405Z,42.9
2018-01-30T08:58:14.144Z,42.9
2018-01-30T08:59:23.425Z,42.8
2018-01-30T09:00:32.655Z,42.9
2018-01-30T09:01:41.382Z,42.61
2018-01-30T09:02:50.906Z,42.71
2018-01-30T09:03:59.677Z,42.61
2018-01-30T09:05:08.907Z,42.71
2018-01-30T09:06:17.922Z,42.8
2018-01-30T09:07:26.934Z,42.71
2018-01-30T09:08:35.981Z,42.61
2018-01-30T09:09:45.287Z,42.71
2018-01-30T09:10:54.656Z,42.42
2018-01-30T09:12:04.360Z,42.52
2018-01-30T09:13:13.151Z,42.52
2018-01-30T09:14:22.247Z,42.52
2018-01-30T09:15:31.534Z,42.42
2018-01-30T09:16:41.425Z,42.61
2018-01-30T09:17:50.735Z,42.61
2018-01-30T09:18:59.496Z,42.42
2018-01-30T09:20:08.877Z,42.61
2018-01-30T09:21:18.155Z,42.32
2018-01-30T09:22:27.213Z,42.42
2018-01-30T09:23:35.970Z,42.32
2018-01-30T09:24:45.504Z,42.42
2018-01-30T09:25:54.243Z,42.42
2018-01-30T09:27:03.316Z,42.23
2018-01-30T09:28:12.928Z,42.23
2018-01-30T09:29:21.964Z,42.52
2018-01-30T09:30:31.528Z,42.52
2018-01-30T09:31:40.614Z,42.32
2018-01-30T09:32:49.911Z,42.42
2018-01-30T09:33:58.690Z,42.52
2018-01-30T09:35:08.037Z,42.32
2018-01-30T09:36:17.053Z,42.42
2018-01-30T09:37:25.805Z,42.32
2018-01-30T09:38:34.797Z,42.32
2018-01-30T09:39:44.100Z,42.32
2018-01-30T09:40:52.886Z,42.52
2018-01-30T09:42:01.945Z,42.52
2018-01-30T09:43:10.972Z,42.42
2018-01-30T09:44:20.016Z,42.52
2018-01-30T09:45:29.275Z,42.61
2018-01-30T09:46:38.293Z,42.61
2018-01-30T09:47:47.040Z,42.42
2018-01-30T09:48:56.319Z,42.52
2018-01-30T09:50:05.109Z,42.52
2018-01-30T09:51:13.970Z,42.42
2018-01-30T09:52:23.313Z,42.61
2018-01-30T09:53:32.606Z,42.42
2018-01-30T09:54:41.618Z,42.42
2018-01-30T09:55:50.885Z,42.52
2018-01-30T09:57:00.467Z,42.52
2018-01-30T09:58:09.355Z,42.52
2018-01-30T09:59:18.405Z,42.52
2018-01-30T10:00:27.676Z,42.52
2018-01-30T10:01:37.041Z,42.52
2018-01-30T10:02:46.062Z,42.23
2018-01-30T10:03:54.792Z,42.52
2018-01-30T10:05:03.500Z,42.32
2018-01-30T10:06:12.715Z,42.52
2018-01-30T10:07:21.683Z,42.23
2018-01-30T10:08:30.652Z,42.61
2018-01-30T10:09:39.616Z,42.23
2018-01-30T10:10:48.559Z,42.52
2018-01-30T10:11:57.273Z,42.32
2018-01-30T10:13:06.227Z,42.52
2018-01-30T10:14:15.427Z,42.42
2018-01-30T10:15:24.654Z,42.52
2018-01-30T10:16:33.854Z,42.32
2018-01-30T10:17:43.337Z,42.32
2018-01-30T10:18:52.050Z,42.32
2018-01-30T10:20:01.847Z,42.42
2018-01-30T10:21:10.805Z,42.23
2018-01-30T10:22:19.499Z,42.23
2018-01-30T10:23:28.194Z,42.42
2018-01-30T10:24:37.156Z,42.42
2018-01-30T10:25:46.110Z,42.32
2018-01-30T10:26:55.054Z,42.32
2018-01-30T10:28:03.754Z,42.23
2018-01-30T10:29:12.714Z,42.32
2018-01-30T10:30:21.930Z,42.13
2018-01-30T10:31:30.618Z,42.23
2018-01-30T10:32:39.841Z,42.23
2018-01-30T10:33:48.555Z,42.13
2018-01-30T10:34:57.236Z,41.94
2018-01-30T10:36:06.212Z,42.13
2018-01-30T10:37:15.674Z,41.94
2018-01-30T10:38:24.628Z,42.13
2018-01-30T10:39:33.840Z,41.94
2018-01-30T10:40:42.826Z,42.32
2018-01-30T10:41:52.090Z,41.94
2018-01-30T10:43:01.044Z,42.23
2018-01-30T10:44:09.777Z,42.13
2018-01-30T10:45:19.346Z,42.32
2018-01-30T10:46:28.120Z,42.32
2018-01-30T10:47:36.923Z,42.32
2018-01-30T10:48:45.708Z,42.32
2018-01-30T10:49:55.024Z,42.32
2018-01-30T10:51:04.659Z,42.32
2018-01-30T10:52:13.458Z,42.32
2018-01-30T10:53:22.746Z,41.94
2018-01-30T10:54:31.755Z,42.23
2018-01-30T10:55:40.819Z,42.13
2018-01-30T10:56:49.848Z,41.94
2018-01-30T10:57:59.166Z,41.94
2018-01-30T10:59:07.936Z,41.94
2018-01-30T11:00:17.511Z,42.13
2018-01-30T11:01:26.263Z,42.13
2018-01-30T11:02:35.262Z,42.13
2018-01-30T11:03:44.321Z,41.75
2018-01-30T11:04:53.337Z,42.13
2018-01-30T11:06:02.318Z,42.32
2018-01-30T11:07:11.323Z,42.23
2018-01-30T11:08:20.391Z,41.84
2018-01-30T11:09:29.196Z,41.84
2018-01-30T11:10:38.012Z,41.94
2018-01-30T11:11:47.088Z,41.94
2018-01-30T11:12:56.143Z,42.03
2018-01-30T11:14:05.453Z,41.65
2018-01-30T11:15:14.564Z,41.65
2018-01-30T11:16:23.584Z,41.75
2018-01-30T11:17:32.317Z,41.94
2018-01-30T11:18:41.043Z,41.84
2018-01-30T11:19:50.034Z,41.84
2018-01-30T11:20:58.737Z,41.84
2018-01-30T11:22:08.069Z,41.75
2018-01-30T11:23:16.765Z,41.77
2018-01-30T11:24:25.471Z,41.94
2018-01-30T11:25:34.154Z,41.86
2018-01-30T11:26:42.851Z,41.94
2018-01-30T11:27:51.839Z,41.84
2018-01-30T11:29:01.182Z,41.75
2018-01-30T11:30:09.873Z,41.77
2018-01-30T11:31:18.832Z,41.65
2018-01-30T11:32:27.786Z,41.65
2018-01-30T11:33:36.732Z,42.03
2018-01-30T11:34:45.777Z,41.65
2018-01-30T11:35:54.507Z,41.65
2018-01-30T11:37:03.504Z,41.65
2018-01-30T11:38:13.024Z,41.55
2018-01-30T11:39:21.734Z,41.94
2018-01-30T11:40:30.971Z,41.65
2018-01-30T11:41:39.677Z,41.84
2018-01-30T11:42:48.935Z,41.94
2018-01-30T11:43:57.928Z,41.65
2018-01-30T11:45:06.929Z,41.94
2018-01-30T11:46:15.643Z,41.94
2018-01-30T11:47:25.136Z,41.65
2018-01-30T11:48:33.870Z,41.65
2018-01-30T11:49:43.098Z,41.57
2018-01-30T11:50:52.061Z,41.55
2018-01-30T11:52:01.059Z,41.48
2018-01-30T11:53:09.780Z,41.67
2018-01-30T11:54:18.841Z,41.67
2018-01-30T11:55:28.111Z,41.67
2018-01-30T11:56:36.794Z,41.67
2018-01-30T11:57:46.013Z,41.67
2018-01-30T11:58:54.711Z,41.67
2018-01-30T12:00:03.661Z,41.67
2018-01-30T12:01:12.605Z,41.67
2018-01-30T12:02:21.861Z,41.86
2018-01-30T12:03:31.413Z,41.65
2018-01-30T12:04:40.131Z,41.67
2018-01-30T12:05:49.175Z,41.67
2018-01-30T12:06:58.203Z,41.77
2018-01-30T12:08:07.515Z,41.67
2018-01-30T12:09:16.544Z,41.65
2018-01-30T12:10:25.620Z,41.65
2018-01-30T12:11:34.641Z,41.65
2018-01-30T12:12:43.670Z,41.55
2018-01-30T12:13:52.483Z,41.55
2018-01-30T12:15:01.498Z,41.84
2018-01-30T12:16:10.548Z,41.65
2018-01-30T12:17:19.382Z,41.94
2018-01-30T12:18:28.503Z,41.94
2018-01-30T12:19:37.500Z,41.75
2018-01-30T12:20:46.628Z,41.94
2018-01-30T12:21:55.403Z,41.94
2018-01-30T12:23:04.425Z,41.75
2018-01-30T12:24:13.434Z,41.65
2018-01-30T12:25:22.680Z,41.55
2018-01-30T12:26:31.654Z,41.75
2018-01-30T12:27:41.202Z,41.75
2018-01-30T12:28:51.064Z,41.84
2018-01-30T12:30:00.130Z,41.75
2018-01-30T12:31:08.817Z,41.84
2018-01-30T12:32:18.074Z,41.65
2018-01-30T12:33:26.874Z,41.75
2018-01-30T12:34:35.871Z,41.75
2018-01-30T12:35:44.849Z,42.03
2018-01-30T12:36:53.555Z,41.94
2018-01-30T12:38:02.622Z,41.94
2018-01-30T12:39:11.645Z,42.03
2018-01-30T12:40:20.399Z,42.03
2018-01-30T12:41:29.402Z,42.23
2018-01-30T12:42:38.654Z,41.84
2018-01-30T12:43:48.162Z,42.32
2018-01-30T12:44:57.114Z,41.84
2018-01-30T12:46:06.595Z,41.84
2018-01-30T12:47:15.288Z,41.84
2018-01-30T12:48:24.048Z,42.13
2018-01-30T12:49:33.013Z,42.03
2018-01-30T12:50:42.013Z,42.13
2018-01-30T12:51:50.915Z,42.13
2018-01-30T12:52:59.860Z,42.03
2018-01-30T12:54:08.570Z,41.65
2018-01-30T12:55:17.612Z,42.13
2018-01-30T12:56:26.699Z,41.65
2018-01-30T12:57:35.699Z,42.03
2018-01-30T12:58:44.735Z,42.03
2018-01-30T12:59:53.704Z,41.84
2018-01-30T13:01:02.705Z,41.75
2018-01-30T13:02:11.693Z,42.13
2018-01-30T13:03:20.470Z,42.03
2018-01-30T13:04:29.195Z,42.13
2018-01-30T13:05:38.426Z,41.84
2018-01-30T13:06:47.390Z,41.84
2018-01-30T13:07:56.628Z,41.65
2018-01-30T13:09:05.710Z,41.94
2018-01-30T13:10:15.487Z,41.94
2018-01-30T13:11:24.228Z,41.84
2018-01-30T13:12:33.189Z,41.94
2018-01-30T13:13:42.392Z,42.13
2018-01-30T13:14:51.138Z,42.03
2018-01-30T13:16:00.348Z,41.55
2018-01-30T13:17:09.564Z,42.13
2018-01-30T13:18:18.519Z,41.65
2018-01-30T13:19:27.540Z,41.84
2018-01-30T13:20:36.796Z,41.55
2018-01-30T13:21:45.539Z,41.65
2018-01-30T13:22:54.530Z,41.75
2018-01-30T13:24:03.296Z,41.75
2018-01-30T13:25:12.035Z,41.75
2018-01-30T13:26:21.055Z,41.84
2018-01-30T13:27:29.741Z,41.84
2018-01-30T13:28:38.953Z,41.65
2018-01-30T13:29:48.439Z,41.55
2018-01-30T13:30:57.200Z,41.94
2018-01-30T13:32:05.895Z,42.03
2018-01-30T13:33:14.599Z,42.03
2018-01-30T13:34:23.589Z,41.94
2018-01-30T13:35:32.857Z,41.94
2018-01-30T13:36:41.874Z,41.65
2018-01-30T13:37:50.670Z,41.55
2018-01-30T13:38:59.445Z,41.84
2018-01-30T13:40:09.002Z,41.55
2018-01-30T13:41:18.208Z,41.65
2018-01-30T13:42:27.721Z,41.55
2018-01-30T13:43:36.529Z,41.65
2018-01-30T13:44:45.508Z,41.55
2018-01-30T13:45:54.571Z,41.65
2018-01-30T13:47:03.586Z,41.65
2018-01-30T13:48:12.279Z,41.75
2018-01-30T13:49:21.598Z,41.75
2018-01-30T13:50:30.868Z,41.65
2018-01-30T13:51:39.958Z,41.84
2018-01-30T13:52:49.474Z,41.65
2018-01-30T13:53:58.173Z,41.75
2018-01-30T13:55:06.860Z,41.75
2018-01-30T13:56:16.073Z,41.84
2018-01-30T13:57:25.038Z,41.84
2018-01-30T13:58:34.237Z,41.84
2018-01-30T13:59:43.452Z,41.65
2018-01-30T14:00:52.969Z,41.75
2018-01-30T14:02:02.179Z,41.84
2018-01-30T14:03:11.661Z,41.75
2018-01-30T14:04:21.383Z,41.65
2018-01-30T14:05:30.590Z,41.75
2018-01-30T14:06:39.539Z,41.75
2018-01-30T14:07:48.233Z,41.75
2018-01-30T14:08:57.459Z,41.84
2018-01-30T14:10:06.424Z,41.94
2018-01-30T14:11:15.384Z,41.75
2018-01-30T14:12:24.084Z,41.75
2018-01-30T14:13:33.304Z,41.75
2018-01-30T14:14:42.018Z,41.94
2018-01-30T14:15:51.478Z,41.84
2018-01-30T14:17:00.470Z,41.65
2018-01-30T14:18:09.185Z,41.94
2018-01-30T14:19:18.160Z,41.55
2018-01-30T14:20:27.422Z,41.55
2018-01-30T14:21:36.367Z,41.94
2018-01-30T14:22:45.332Z,41.55
2018-01-30T14:23:54.106Z,41.84
2018-01-30T14:25:03.317Z,41.75
2018-01-30T14:26:12.537Z,41.94
2018-01-30T14:27:21.806Z,41.55
2018-01-30T14:28:30.509Z,41.75
2018-01-30T14:29:39.201Z,41.46
2018-01-30T14:30:47.889Z,41.55
2018-01-30T14:31:57.614Z,41.55
2018-01-30T14:33:07.143Z,41.65
2018-01-30T14:34:15.829Z,41.94
2018-01-30T14:35:24.768Z,41.55
2018-01-30T14:36:33.452Z,41.94
2018-01-30T14:37:42.927Z,41.46
2018-01-30T14:38:51.621Z,41.55
2018-01-30T14:40:00.607Z,41.94
2018-01-30T14:41:09.569Z,41.94
2018-01-30T14:42:18.521Z,41.94
2018-01-30T14:43:27.475Z,41.84
2018-01-30T14:44:36.495Z,41.65
2018-01-30T14:45:46.252Z,41.84
2018-01-30T14:46:55.207Z,41.65
2018-01-30T14:48:04.154Z,42.03
2018-01-30T14:49:12.847Z,41.84
2018-01-30T14:50:22.388Z,41.75
2018-01-30T14:51:31.103Z,41.75
2018-01-30T14:52:40.326Z,41.94
2018-01-30T14:53:49.530Z,41.94
2018-01-30T14:54:58.227Z,41.94
2018-01-30T14:56:07.458Z,41.84